sensor_id;sensor_type;location;lat;lon;timestamp;P1;durP1;ratioP1;P2;durP2;ratioP2
74616;SDS011;63123;50.906;4.198;2023-07-09T00:01:58;4.53;;;3.97;;
74616;SDS011;63123;50.906;4.198;2023-07-09T00:04:24;4.32;;;3.97;;
74616;SDS011;63123;50.906;4.198;2023-07-09T00:06:49;3.90;;;3.50;;
74616;SDS011;63123;50.906;4.198;2023-07-09T00:09:19;4.45;;;4.05;;
74616;SDS011;63123;50.906;4.198;2023-07-09T00:11:46;3.58;;;3.28;;
74616;SDS011;63123;50.906;4.198;2023-07-09T00:14:15;4.32;;;3.92;;
74616;SDS011;63123;50.906;4.198;2023-07-09T00:16:42;3.75;;;3.40;;
74616;SDS011;63123;50.906;4.198;2023-07-09T00:19:12;4.90;;;4.43;;
74616;SDS011;63123;50.906;4.198;2023-07-09T00:21:44;4.45;;;4.05;;
74616;SDS011;63123;50.906;4.198;2023-07-09T00:24:11;4.57;;;4.18;;
74616;SDS011;63123;50.906;4.198;2023-07-09T00:26:37;3.70;;;3.40;;
74616;SDS011;63123;50.906;4.198;2023-07-09T00:29:03;3.90;;;2.92;;
74616;SDS011;63123;50.906;4.198;2023-07-09T00:31:29;3.63;;;3.33;;
74616;SDS011;63123;50.906;4.198;2023-07-09T00:33:55;4.45;;;4.05;;
74616;SDS011;63123;50.906;4.198;2023-07-09T00:36:28;4.63;;;4.13;;
74616;SDS011;63123;50.906;4.198;2023-07-09T00:38:57;3.92;;;3.53;;
74616;SDS011;63123;50.906;4.198;2023-07-09T00:41:24;4.03;;;3.63;;
74616;SDS011;63123;50.906;4.198;2023-07-09T00:43:51;3.97;;;3.58;;
74616;SDS011;63123;50.906;4.198;2023-07-09T00:48:48;3.88;;;3.47;;
74616;SDS011;63123;50.906;4.198;2023-07-09T00:51:16;4.30;;;3.90;;
74616;SDS011;63123;50.906;4.198;2023-07-09T00:53:45;3.95;;;3.58;;
74616;SDS011;63123;50.906;4.198;2023-07-09T00:56:15;3.97;;;3.67;;
74616;SDS011;63123;50.906;4.198;2023-07-09T00:58:46;4.07;;;3.75;;
74616;SDS011;63123;50.906;4.198;2023-07-09T01:01:13;4.40;;;4.00;;
74616;SDS011;63123;50.906;4.198;2023-07-09T01:03:51;3.92;;;3.58;;
74616;SDS011;63123;50.906;4.198;2023-07-09T01:06:20;3.90;;;3.42;;
74616;SDS011;63123;50.906;4.198;2023-07-09T01:08:55;3.78;;;3.47;;
74616;SDS011;63123;50.906;4.198;2023-07-09T01:11:21;4.15;;;3.75;;
74616;SDS011;63123;50.906;4.198;2023-07-09T01:13:51;3.60;;;3.30;;
74616;SDS011;63123;50.906;4.198;2023-07-09T01:16:19;3.67;;;3.38;;
74616;SDS011;63123;50.906;4.198;2023-07-09T01:18:49;4.95;;;3.80;;
74616;SDS011;63123;50.906;4.198;2023-07-09T01:21:15;4.63;;;3.92;;
74616;SDS011;63123;50.906;4.198;2023-07-09T01:23:41;4.28;;;3.88;;
74616;SDS011;63123;50.906;4.198;2023-07-09T01:26:12;4.70;;;3.92;;
74616;SDS011;63123;50.906;4.198;2023-07-09T01:28:46;5.97;;;4.25;;
74616;SDS011;63123;50.906;4.198;2023-07-09T01:31:13;3.63;;;3.30;;
74616;SDS011;63123;50.906;4.198;2023-07-09T01:33:40;4.43;;;4.03;;
74616;SDS011;63123;50.906;4.198;2023-07-09T01:36:10;5.70;;;5.20;;
74616;SDS011;63123;50.906;4.198;2023-07-09T01:38:39;4.40;;;3.67;;
74616;SDS011;63123;50.906;4.198;2023-07-09T01:41:06;4.10;;;3.70;;
74616;SDS011;63123;50.906;4.198;2023-07-09T01:43:32;3.70;;;3.30;;
74616;SDS011;63123;50.906;4.198;2023-07-09T01:45:59;3.88;;;3.50;;
74616;SDS011;63123;50.906;4.198;2023-07-09T01:48:25;5.20;;;4.45;;
74616;SDS011;63123;50.906;4.198;2023-07-09T01:50:51;3.50;;;3.20;;
74616;SDS011;63123;50.906;4.198;2023-07-09T01:53:19;4.28;;;3.92;;
74616;SDS011;63123;50.906;4.198;2023-07-09T01:55:50;3.83;;;3.40;;
74616;SDS011;63123;50.906;4.198;2023-07-09T01:58:16;4.50;;;4.10;;
74616;SDS011;63123;50.906;4.198;2023-07-09T02:00:43;3.90;;;3.60;;
74616;SDS011;63123;50.906;4.198;2023-07-09T02:03:10;3.90;;;3.60;;
74616;SDS011;63123;50.906;4.198;2023-07-09T02:05:36;4.20;;;3.78;;
74616;SDS011;63123;50.906;4.198;2023-07-09T02:08:02;4.22;;;3.83;;
74616;SDS011;63123;50.906;4.198;2023-07-09T02:10:28;4.45;;;4.05;;
74616;SDS011;63123;50.906;4.198;2023-07-09T02:12:54;3.97;;;3.67;;
74616;SDS011;63123;50.906;4.198;2023-07-09T02:15:20;3.75;;;3.45;;
74616;SDS011;63123;50.906;4.198;2023-07-09T02:17:46;3.45;;;3.15;;
74616;SDS011;63123;50.906;4.198;2023-07-09T02:20:12;4.40;;;4.00;;
74616;SDS011;63123;50.906;4.198;2023-07-09T02:22:39;4.10;;;3.70;;
74616;SDS011;63123;50.906;4.198;2023-07-09T02:25:06;4.22;;;3.78;;
74616;SDS011;63123;50.906;4.198;2023-07-09T02:27:32;4.05;;;3.75;;
74616;SDS011;63123;50.906;4.198;2023-07-09T02:29:58;3.88;;;3.55;;
74616;SDS011;63123;50.906;4.198;2023-07-09T02:32:25;3.90;;;3.58;;
74616;SDS011;63123;50.906;4.198;2023-07-09T02:34:52;3.50;;;3.20;;
74616;SDS011;63123;50.906;4.198;2023-07-09T02:37:19;4.13;;;3.70;;
74616;SDS011;63123;50.906;4.198;2023-07-09T02:39:47;4.40;;;4.00;;
74616;SDS011;63123;50.906;4.198;2023-07-09T02:42:13;3.95;;;3.65;;
74616;SDS011;63123;50.906;4.198;2023-07-09T02:44:41;4.50;;;4.10;;
74616;SDS011;63123;50.906;4.198;2023-07-09T02:47:08;4.40;;;4.00;;
74616;SDS011;63123;50.906;4.198;2023-07-09T02:49:35;3.67;;;3.38;;
74616;SDS011;63123;50.906;4.198;2023-07-09T02:52:01;3.72;;;3.38;;
74616;SDS011;63123;50.906;4.198;2023-07-09T02:54:26;4.00;;;3.70;;
74616;SDS011;63123;50.906;4.198;2023-07-09T02:56:52;3.90;;;3.50;;
74616;SDS011;63123;50.906;4.198;2023-07-09T02:59:18;3.60;;;3.30;;
74616;SDS011;63123;50.906;4.198;2023-07-09T03:01:43;3.97;;;3.58;;
74616;SDS011;63123;50.906;4.198;2023-07-09T03:04:10;4.22;;;3.47;;
74616;SDS011;63123;50.906;4.198;2023-07-09T03:06:35;4.65;;;4.25;;
74616;SDS011;63123;50.906;4.198;2023-07-09T03:09:04;4.07;;;3.67;;
74616;SDS011;63123;50.906;4.198;2023-07-09T03:11:31;4.28;;;3.90;;
74616;SDS011;63123;50.906;4.198;2023-07-09T03:13:58;4.13;;;3.72;;
74616;SDS011;63123;50.906;4.198;2023-07-09T03:16:26;3.83;;;3.40;;
74616;SDS011;63123;50.906;4.198;2023-07-09T03:18:53;3.83;;;3.53;;
74616;SDS011;63123;50.906;4.198;2023-07-09T03:21:19;3.47;;;3.17;;
74616;SDS011;63123;50.906;4.198;2023-07-09T03:23:45;4.22;;;3.92;;
74616;SDS011;63123;50.906;4.198;2023-07-09T03:26:11;3.70;;;3.38;;
74616;SDS011;63123;50.906;4.198;2023-07-09T03:28:37;4.05;;;3.67;;
74616;SDS011;63123;50.906;4.198;2023-07-09T03:31:03;3.75;;;3.45;;
74616;SDS011;63123;50.906;4.198;2023-07-09T03:33:28;3.65;;;3.35;;
74616;SDS011;63123;50.906;4.198;2023-07-09T03:35:54;3.85;;;3.55;;
74616;SDS011;63123;50.906;4.198;2023-07-09T03:38:20;4.28;;;3.40;;
74616;SDS011;63123;50.906;4.198;2023-07-09T03:40:45;4.10;;;3.80;;
74616;SDS011;63123;50.906;4.198;2023-07-09T03:43:14;3.78;;;3.47;;
74616;SDS011;63123;50.906;4.198;2023-07-09T03:45:39;4.10;;;3.70;;
74616;SDS011;63123;50.906;4.198;2023-07-09T03:48:05;4.05;;;3.72;;
74616;SDS011;63123;50.906;4.198;2023-07-09T03:50:31;3.75;;;3.45;;
74616;SDS011;63123;50.906;4.198;2023-07-09T03:52:57;4.32;;;3.83;;
74616;SDS011;63123;50.906;4.198;2023-07-09T03:55:23;3.47;;;3.17;;
74616;SDS011;63123;50.906;4.198;2023-07-09T03:57:52;4.32;;;3.97;;
74616;SDS011;63123;50.906;4.198;2023-07-09T04:00:18;3.88;;;3.58;;
74616;SDS011;63123;50.906;4.198;2023-07-09T04:02:44;4.50;;;4.10;;
74616;SDS011;63123;50.906;4.198;2023-07-09T04:05:10;3.63;;;3.33;;
74616;SDS011;63123;50.906;4.198;2023-07-09T04:07:36;3.72;;;3.42;;
74616;SDS011;63123;50.906;4.198;2023-07-09T04:10:02;3.83;;;3.53;;
74616;SDS011;63123;50.906;4.198;2023-07-09T04:12:28;3.88;;;3.47;;
74616;SDS011;63123;50.906;4.198;2023-07-09T04:14:53;3.70;;;3.28;;
74616;SDS011;63123;50.906;4.198;2023-07-09T04:17:19;3.60;;;3.30;;
74616;SDS011;63123;50.906;4.198;2023-07-09T04:19:46;3.70;;;3.40;;
74616;SDS011;63123;50.906;4.198;2023-07-09T04:22:12;3.95;;;3.55;;
74616;SDS011;63123;50.906;4.198;2023-07-09T04:24:38;3.88;;;3.50;;
74616;SDS011;63123;50.906;4.198;2023-07-09T04:27:03;4.20;;;3.83;;
74616;SDS011;63123;50.906;4.198;2023-07-09T04:29:30;4.50;;;4.10;;
74616;SDS011;63123;50.906;4.198;2023-07-09T04:31:55;3.55;;;3.25;;
74616;SDS011;63123;50.906;4.198;2023-07-09T04:34:21;3.75;;;3.45;;
74616;SDS011;63123;50.906;4.198;2023-07-09T04:36:48;3.58;;;3.28;;
74616;SDS011;63123;50.906;4.198;2023-07-09T04:39:13;4.15;;;3.75;;
74616;SDS011;63123;50.906;4.198;2023-07-09T04:41:40;3.97;;;3.67;;
74616;SDS011;63123;50.906;4.198;2023-07-09T04:44:05;3.88;;;3.58;;
74616;SDS011;63123;50.906;4.198;2023-07-09T04:46:31;3.50;;;3.20;;
74616;SDS011;63123;50.906;4.198;2023-07-09T04:48:56;3.75;;;3.45;;
74616;SDS011;63123;50.906;4.198;2023-07-09T04:51:22;4.03;;;3.70;;
74616;SDS011;63123;50.906;4.198;2023-07-09T04:53:47;3.63;;;3.33;;
74616;SDS011;63123;50.906;4.198;2023-07-09T04:56:16;3.90;;;3.60;;
74616;SDS011;63123;50.906;4.198;2023-07-09T04:58:42;3.95;;;3.53;;
74616;SDS011;63123;50.906;4.198;2023-07-09T05:01:08;4.10;;;3.80;;
74616;SDS011;63123;50.906;4.198;2023-07-09T05:03:33;4.05;;;3.75;;
74616;SDS011;63123;50.906;4.198;2023-07-09T05:05:59;4.18;;;3.78;;
74616;SDS011;63123;50.906;4.198;2023-07-09T05:08:25;4.07;;;3.78;;
74616;SDS011;63123;50.906;4.198;2023-07-09T05:10:51;3.95;;;3.65;;
74616;SDS011;63123;50.906;4.198;2023-07-09T05:13:18;4.32;;;3.92;;
74616;SDS011;63123;50.906;4.198;2023-07-09T05:15:44;4.38;;;3.97;;
74616;SDS011;63123;50.906;4.198;2023-07-09T05:18:12;3.80;;;3.50;;
74616;SDS011;63123;50.906;4.198;2023-07-09T05:20:38;4.30;;;3.92;;
74616;SDS011;63123;50.906;4.198;2023-07-09T05:23:05;3.75;;;3.45;;
74616;SDS011;63123;50.906;4.198;2023-07-09T05:25:30;4.30;;;3.90;;
74616;SDS011;63123;50.906;4.198;2023-07-09T05:27:56;3.95;;;3.63;;
74616;SDS011;63123;50.906;4.198;2023-07-09T05:30:22;4.03;;;3.63;;
74616;SDS011;63123;50.906;4.198;2023-07-09T05:32:48;4.32;;;3.92;;
74616;SDS011;63123;50.906;4.198;2023-07-09T05:35:13;4.95;;;4.55;;
74616;SDS011;63123;50.906;4.198;2023-07-09T05:37:39;4.45;;;4.05;;
74616;SDS011;63123;50.906;4.198;2023-07-09T05:40:06;4.25;;;3.90;;
74616;SDS011;63123;50.906;4.198;2023-07-09T05:42:33;3.63;;;3.33;;
74616;SDS011;63123;50.906;4.198;2023-07-09T05:44:58;4.45;;;4.05;;
74616;SDS011;63123;50.906;4.198;2023-07-09T05:47:25;4.50;;;4.10;;
74616;SDS011;63123;50.906;4.198;2023-07-09T05:49:51;4.68;;;4.32;;
74616;SDS011;63123;50.906;4.198;2023-07-09T05:52:17;4.95;;;4.45;;
74616;SDS011;63123;50.906;4.198;2023-07-09T05:54:44;5.07;;;4.68;;
74616;SDS011;63123;50.906;4.198;2023-07-09T05:57:10;4.47;;;4.18;;
74616;SDS011;63123;50.906;4.198;2023-07-09T05:59:36;4.47;;;4.07;;
74616;SDS011;63123;50.906;4.198;2023-07-09T06:02:02;4.65;;;4.25;;
74616;SDS011;63123;50.906;4.198;2023-07-09T06:04:28;4.40;;;4.00;;
74616;SDS011;63123;50.906;4.198;2023-07-09T06:06:56;6.32;;;5.72;;
74616;SDS011;63123;50.906;4.198;2023-07-09T06:09:22;5.65;;;5.15;;
74616;SDS011;63123;50.906;4.198;2023-07-09T06:11:48;4.80;;;4.40;;
74616;SDS011;63123;50.906;4.198;2023-07-09T06:14:13;6.47;;;5.95;;
74616;SDS011;63123;50.906;4.198;2023-07-09T06:16:41;6.85;;;6.20;;
74616;SDS011;63123;50.906;4.198;2023-07-09T06:19:08;5.15;;;4.75;;
74616;SDS011;63123;50.906;4.198;2023-07-09T06:21:34;4.97;;;4.57;;
74616;SDS011;63123;50.906;4.198;2023-07-09T06:23:59;5.05;;;4.55;;
74616;SDS011;63123;50.906;4.198;2023-07-09T06:26:25;5.15;;;4.75;;
74616;SDS011;63123;50.906;4.198;2023-07-09T06:28:50;5.78;;;5.28;;
74616;SDS011;63123;50.906;4.198;2023-07-09T06:31:16;6.00;;;5.40;;
74616;SDS011;63123;50.906;4.198;2023-07-09T06:33:43;6.75;;;6.15;;
74616;SDS011;63123;50.906;4.198;2023-07-09T06:36:09;5.90;;;5.35;;
74616;SDS011;63123;50.906;4.198;2023-07-09T06:38:35;6.78;;;6.15;;
74616;SDS011;63123;50.906;4.198;2023-07-09T06:41:00;6.05;;;5.55;;
74616;SDS011;63123;50.906;4.198;2023-07-09T06:43:27;5.82;;;5.32;;
74616;SDS011;63123;50.906;4.198;2023-07-09T06:45:54;6.20;;;5.68;;
74616;SDS011;63123;50.906;4.198;2023-07-09T06:48:21;6.55;;;5.95;;
74616;SDS011;63123;50.906;4.198;2023-07-09T06:50:47;5.63;;;5.13;;
74616;SDS011;63123;50.906;4.198;2023-07-09T06:53:13;6.32;;;5.78;;
74616;SDS011;63123;50.906;4.198;2023-07-09T06:55:39;5.60;;;5.10;;
74616;SDS011;63123;50.906;4.198;2023-07-09T06:58:05;6.10;;;5.60;;
74616;SDS011;63123;50.906;4.198;2023-07-09T07:00:31;5.95;;;5.40;;
74616;SDS011;63123;50.906;4.198;2023-07-09T07:03:01;5.38;;;4.95;;
74616;SDS011;63123;50.906;4.198;2023-07-09T07:05:27;6.63;;;6.03;;
74616;SDS011;63123;50.906;4.198;2023-07-09T07:07:53;6.15;;;5.65;;
74616;SDS011;63123;50.906;4.198;2023-07-09T07:10:19;5.72;;;5.22;;
74616;SDS011;63123;50.906;4.198;2023-07-09T07:12:46;5.80;;;5.30;;
74616;SDS011;63123;50.906;4.198;2023-07-09T07:15:13;6.88;;;6.28;;
74616;SDS011;63123;50.906;4.198;2023-07-09T07:17:41;7.20;;;6.57;;
74616;SDS011;63123;50.906;4.198;2023-07-09T07:20:08;6.82;;;6.32;;
74616;SDS011;63123;50.906;4.198;2023-07-09T07:22:36;6.47;;;5.97;;
74616;SDS011;63123;50.906;4.198;2023-07-09T07:25:02;7.43;;;6.80;;
74616;SDS011;63123;50.906;4.198;2023-07-09T07:27:28;6.82;;;6.22;;
74616;SDS011;63123;50.906;4.198;2023-07-09T07:29:54;8.95;;;8.23;;
74616;SDS011;63123;50.906;4.198;2023-07-09T07:32:19;6.22;;;5.43;;
74616;SDS011;63123;50.906;4.198;2023-07-09T07:34:48;6.70;;;6.10;;
74616;SDS011;63123;50.906;4.198;2023-07-09T07:37:14;6.35;;;5.75;;
74616;SDS011;63123;50.906;4.198;2023-07-09T07:39:40;6.55;;;5.95;;
74616;SDS011;63123;50.906;4.198;2023-07-09T07:42:06;6.22;;;5.63;;
74616;SDS011;63123;50.906;4.198;2023-07-09T07:44:32;6.82;;;6.22;;
74616;SDS011;63123;50.906;4.198;2023-07-09T07:46:58;6.70;;;6.10;;
74616;SDS011;63123;50.906;4.198;2023-07-09T07:49:23;6.80;;;6.10;;
74616;SDS011;63123;50.906;4.198;2023-07-09T07:51:49;6.88;;;6.28;;
74616;SDS011;63123;50.906;4.198;2023-07-09T07:54:15;7.80;;;7.10;;
74616;SDS011;63123;50.906;4.198;2023-07-09T07:56:42;7.03;;;6.32;;
74616;SDS011;63123;50.906;4.198;2023-07-09T07:59:08;9.10;;;7.78;;
74616;SDS011;63123;50.906;4.198;2023-07-09T08:01:33;8.38;;;7.55;;
74616;SDS011;63123;50.906;4.198;2023-07-09T08:04:01;8.65;;;7.85;;
74616;SDS011;63123;50.906;4.198;2023-07-09T08:06:27;10.02;;;8.48;;
74616;SDS011;63123;50.906;4.198;2023-07-09T08:08:53;9.50;;;8.45;;
74616;SDS011;63123;50.906;4.198;2023-07-09T08:11:18;10.80;;;8.18;;
74616;SDS011;63123;50.906;4.198;2023-07-09T08:13:44;10.05;;;8.98;;
74616;SDS011;63123;50.906;4.198;2023-07-09T08:16:10;10.40;;;9.40;;
74616;SDS011;63123;50.906;4.198;2023-07-09T08:18:37;10.73;;;9.55;;
74616;SDS011;63123;50.906;4.198;2023-07-09T08:21:03;9.80;;;8.80;;
74616;SDS011;63123;50.906;4.198;2023-07-09T08:23:29;10.23;;;8.70;;
74616;SDS011;63123;50.906;4.198;2023-07-09T08:25:55;13.07;;;9.77;;
74616;SDS011;63123;50.906;4.198;2023-07-09T08:28:22;12.35;;;10.07;;
74616;SDS011;63123;50.906;4.198;2023-07-09T08:30:50;11.05;;;9.85;;
74616;SDS011;63123;50.906;4.198;2023-07-09T08:33:17;12.15;;;10.10;;
74616;SDS011;63123;50.906;4.198;2023-07-09T08:35:43;12.07;;;10.48;;
74616;SDS011;63123;50.906;4.198;2023-07-09T08:38:08;10.80;;;8.95;;
74616;SDS011;63123;50.906;4.198;2023-07-09T08:40:38;10.80;;;8.98;;
74616;SDS011;63123;50.906;4.198;2023-07-09T08:43:42;13.13;;;10.43;;
74616;SDS011;63123;50.906;4.198;2023-07-09T08:46:47;13.35;;;10.20;;
74616;SDS011;63123;50.906;4.198;2023-07-09T08:49:20;12.48;;;9.55;;
74616;SDS011;63123;50.906;4.198;2023-07-09T08:51:51;12.55;;;10.40;;
74616;SDS011;63123;50.906;4.198;2023-07-09T08:54:26;12.43;;;10.65;;
74616;SDS011;63123;50.906;4.198;2023-07-09T08:56:53;11.32;;;9.70;;
74616;SDS011;63123;50.906;4.198;2023-07-09T08:59:22;11.38;;;10.18;;
74616;SDS011;63123;50.906;4.198;2023-07-09T09:01:51;11.65;;;10.43;;
74616;SDS011;63123;50.906;4.198;2023-07-09T09:04:29;12.65;;;10.20;;
74616;SDS011;63123;50.906;4.198;2023-07-09T09:09:58;11.00;;;8.80;;
74616;SDS011;63123;50.906;4.198;2023-07-09T09:12:28;12.23;;;10.45;;
74616;SDS011;63123;50.906;4.198;2023-07-09T09:14:59;12.55;;;10.43;;
74616;SDS011;63123;50.906;4.198;2023-07-09T09:17:46;11.85;;;9.02;;
74616;SDS011;63123;50.906;4.198;2023-07-09T09:20:19;12.27;;;9.77;;
74616;SDS011;63123;50.906;4.198;2023-07-09T09:22:49;10.82;;;9.52;;
74616;SDS011;63123;50.906;4.198;2023-07-09T09:27:46;11.57;;;9.43;;
74616;SDS011;63123;50.906;4.198;2023-07-09T09:30:17;12.80;;;9.65;;
74616;SDS011;63123;50.906;4.198;2023-07-09T09:32:47;14.77;;;11.38;;
74616;SDS011;63123;50.906;4.198;2023-07-09T09:35:25;11.00;;;9.73;;
74616;SDS011;63123;50.906;4.198;2023-07-09T09:37:57;13.57;;;9.95;;
74616;SDS011;63123;50.906;4.198;2023-07-09T09:40:24;12.40;;;10.60;;
74616;SDS011;63123;50.906;4.198;2023-07-09T09:42:52;11.25;;;9.23;;
74616;SDS011;63123;50.906;4.198;2023-07-09T09:45:20;10.88;;;9.77;;
74616;SDS011;63123;50.906;4.198;2023-07-09T09:47:49;12.18;;;9.73;;
74616;SDS011;63123;50.906;4.198;2023-07-09T09:50:16;13.07;;;9.93;;
74616;SDS011;63123;50.906;4.198;2023-07-09T09:52:43;11.20;;;9.80;;
74616;SDS011;63123;50.906;4.198;2023-07-09T09:55:17;12.07;;;9.80;;
74616;SDS011;63123;50.906;4.198;2023-07-09T09:57:53;12.10;;;9.95;;
74616;SDS011;63123;50.906;4.198;2023-07-09T10:00:23;11.60;;;9.90;;
74616;SDS011;63123;50.906;4.198;2023-07-09T10:02:56;10.98;;;8.80;;
74616;SDS011;63123;50.906;4.198;2023-07-09T10:05:31;10.15;;;9.15;;
74616;SDS011;63123;50.906;4.198;2023-07-09T10:08:05;10.30;;;9.20;;
74616;SDS011;63123;50.906;4.198;2023-07-09T10:10:34;9.75;;;8.82;;
74616;SDS011;63123;50.906;4.198;2023-07-09T10:21:46;12.68;;;9.50;;
74616;SDS011;63123;50.906;4.198;2023-07-09T10:26:56;9.65;;;8.52;;
74616;SDS011;63123;50.906;4.198;2023-07-09T10:35:05;8.63;;;7.72;;
74616;SDS011;63123;50.906;4.198;2023-07-09T10:37:44;8.68;;;7.85;;
74616;SDS011;63123;50.906;4.198;2023-07-09T10:40:24;8.93;;;8.07;;
74616;SDS011;63123;50.906;4.198;2023-07-09T10:42:59;9.40;;;8.13;;
74616;SDS011;63123;50.906;4.198;2023-07-09T10:45:31;8.90;;;8.00;;
74616;SDS011;63123;50.906;4.198;2023-07-09T10:48:07;8.32;;;7.53;;
74616;SDS011;63123;50.906;4.198;2023-07-09T10:50:44;8.45;;;7.68;;
74616;SDS011;63123;50.906;4.198;2023-07-09T10:55:59;7.93;;;7.10;;
74616;SDS011;63123;50.906;4.198;2023-07-09T11:01:19;8.00;;;7.20;;
74616;SDS011;63123;50.906;4.198;2023-07-09T11:03:55;9.38;;;8.02;;
74616;SDS011;63123;50.906;4.198;2023-07-09T11:06:31;8.07;;;7.38;;
74616;SDS011;63123;50.906;4.198;2023-07-09T11:09:04;7.65;;;6.95;;
74616;SDS011;63123;50.906;4.198;2023-07-09T11:11:41;7.80;;;7.00;;
74616;SDS011;63123;50.906;4.198;2023-07-09T11:17:17;6.90;;;6.20;;
74616;SDS011;63123;50.906;4.198;2023-07-09T11:19:45;6.97;;;6.30;;
74616;SDS011;63123;50.906;4.198;2023-07-09T11:22:16;8.02;;;6.32;;
74616;SDS011;63123;50.906;4.198;2023-07-09T11:24:47;6.38;;;5.78;;
74616;SDS011;63123;50.906;4.198;2023-07-09T11:27:22;6.75;;;6.15;;
74616;SDS011;63123;50.906;4.198;2023-07-09T11:30:33;8.00;;;6.85;;
74616;SDS011;63123;50.906;4.198;2023-07-09T11:32:56;7.13;;;6.25;;
74616;SDS011;63123;50.906;4.198;2023-07-09T11:35:24;6.93;;;6.32;;
74616;SDS011;63123;50.906;4.198;2023-07-09T11:37:52;7.55;;;6.47;;
74616;SDS011;63123;50.906;4.198;2023-07-09T11:40:18;6.30;;;5.70;;
74616;SDS011;63123;50.906;4.198;2023-07-09T11:42:53;8.90;;;6.22;;
74616;SDS011;63123;50.906;4.198;2023-07-09T11:45:33;7.05;;;6.35;;
74616;SDS011;63123;50.906;4.198;2023-07-09T11:50:39;6.00;;;5.22;;
74616;SDS011;63123;50.906;4.198;2023-07-09T11:53:54;7.13;;;6.43;;
74616;SDS011;63123;50.906;4.198;2023-07-09T11:56:09;6.93;;;5.95;;
74616;SDS011;63123;50.906;4.198;2023-07-09T11:58:35;6.13;;;5.53;;
74616;SDS011;63123;50.906;4.198;2023-07-09T12:01:00;6.45;;;5.85;;
74616;SDS011;63123;50.906;4.198;2023-07-09T12:03:27;6.40;;;5.80;;
74616;SDS011;63123;50.906;4.198;2023-07-09T12:06:07;5.53;;;5.03;;
74616;SDS011;63123;50.906;4.198;2023-07-09T12:08:42;5.35;;;4.85;;
74616;SDS011;63123;50.906;4.198;2023-07-09T12:11:23;5.82;;;5.35;;
74616;SDS011;63123;50.906;4.198;2023-07-09T12:13:53;6.22;;;5.68;;
74616;SDS011;63123;50.906;4.198;2023-07-09T12:16:29;6.32;;;5.72;;
74616;SDS011;63123;50.906;4.198;2023-07-09T12:18:57;5.22;;;4.72;;
74616;SDS011;63123;50.906;4.198;2023-07-09T12:21:23;5.05;;;4.65;;
74616;SDS011;63123;50.906;4.198;2023-07-09T12:23:50;5.80;;;5.30;;
74616;SDS011;63123;50.906;4.198;2023-07-09T12:26:17;6.30;;;5.50;;
74616;SDS011;63123;50.906;4.198;2023-07-09T12:28:53;5.13;;;4.63;;
74616;SDS011;63123;50.906;4.198;2023-07-09T12:31:25;5.88;;;5.03;;
74616;SDS011;63123;50.906;4.198;2023-07-09T12:33:53;5.47;;;4.95;;
74616;SDS011;63123;50.906;4.198;2023-07-09T12:36:20;5.75;;;5.07;;
74616;SDS011;63123;50.906;4.198;2023-07-09T12:38:47;4.63;;;4.22;;
74616;SDS011;63123;50.906;4.198;2023-07-09T12:41:19;5.30;;;4.80;;
74616;SDS011;63123;50.906;4.198;2023-07-09T12:43:53;5.45;;;5.03;;
74616;SDS011;63123;50.906;4.198;2023-07-09T12:46:20;4.90;;;4.50;;
74616;SDS011;63123;50.906;4.198;2023-07-09T12:48:49;5.13;;;4.72;;
74616;SDS011;63123;50.906;4.198;2023-07-09T12:51:21;4.75;;;4.35;;
74616;SDS011;63123;50.906;4.198;2023-07-09T12:56:53;4.93;;;4.53;;
74616;SDS011;63123;50.906;4.198;2023-07-09T12:59:26;4.90;;;4.50;;
74616;SDS011;63123;50.906;4.198;2023-07-09T13:02:03;5.45;;;4.95;;
74616;SDS011;63123;50.906;4.198;2023-07-09T13:04:38;5.32;;;4.90;;
74616;SDS011;63123;50.906;4.198;2023-07-09T13:07:05;5.13;;;4.72;;
74616;SDS011;63123;50.906;4.198;2023-07-09T13:09:50;5.80;;;4.57;;
74616;SDS011;63123;50.906;4.198;2023-07-09T13:12:17;5.22;;;4.72;;
74616;SDS011;63123;50.906;4.198;2023-07-09T13:14:46;4.97;;;4.40;;
74616;SDS011;63123;50.906;4.198;2023-07-09T13:17:18;5.00;;;4.60;;
74616;SDS011;63123;50.906;4.198;2023-07-09T13:19:44;5.05;;;4.55;;
74616;SDS011;63123;50.906;4.198;2023-07-09T13:22:11;4.20;;;3.80;;
74616;SDS011;63123;50.906;4.198;2023-07-09T13:24:39;4.88;;;4.45;;
74616;SDS011;63123;50.906;4.198;2023-07-09T13:27:04;6.00;;;4.72;;
74616;SDS011;63123;50.906;4.198;2023-07-09T13:29:33;4.90;;;4.47;;
74616;SDS011;63123;50.906;4.198;2023-07-09T13:31:59;5.25;;;4.68;;
74616;SDS011;63123;50.906;4.198;2023-07-09T13:34:26;5.00;;;4.45;;
74616;SDS011;63123;50.906;4.198;2023-07-09T13:36:53;4.72;;;4.20;;
74616;SDS011;63123;50.906;4.198;2023-07-09T13:39:21;5.03;;;4.63;;
74616;SDS011;63123;50.906;4.198;2023-07-09T13:41:48;5.13;;;4.70;;
74616;SDS011;63123;50.906;4.198;2023-07-09T13:44:20;4.55;;;4.15;;
74616;SDS011;63123;50.906;4.198;2023-07-09T13:46:47;4.85;;;4.35;;
74616;SDS011;63123;50.906;4.198;2023-07-09T13:49:14;5.00;;;4.50;;
74616;SDS011;63123;50.906;4.198;2023-07-09T13:51:46;4.80;;;4.40;;
74616;SDS011;63123;50.906;4.198;2023-07-09T13:54:17;4.93;;;4.43;;
74616;SDS011;63123;50.906;4.198;2023-07-09T13:56:50;4.22;;;3.85;;
74616;SDS011;63123;50.906;4.198;2023-07-09T13:59:20;5.00;;;4.50;;
74616;SDS011;63123;50.906;4.198;2023-07-09T14:01:52;5.03;;;4.38;;
74616;SDS011;63123;50.906;4.198;2023-07-09T14:04:20;4.57;;;4.18;;
74616;SDS011;63123;50.906;4.198;2023-07-09T14:06:46;4.10;;;3.70;;
74616;SDS011;63123;50.906;4.198;2023-07-09T14:09:12;4.85;;;4.40;;
74616;SDS011;63123;50.906;4.198;2023-07-09T14:11:43;4.03;;;3.72;;
74616;SDS011;63123;50.906;4.198;2023-07-09T14:14:19;4.20;;;3.80;;
74616;SDS011;63123;50.906;4.198;2023-07-09T14:16:52;4.68;;;4.28;;
74616;SDS011;63123;50.906;4.198;2023-07-09T14:19:19;4.97;;;4.53;;
74616;SDS011;63123;50.906;4.198;2023-07-09T14:21:47;4.78;;;4.38;;
74616;SDS011;63123;50.906;4.198;2023-07-09T14:24:20;4.35;;;3.95;;
74616;SDS011;63123;50.906;4.198;2023-07-09T14:26:49;4.43;;;4.03;;
74616;SDS011;63123;50.906;4.198;2023-07-09T14:29:16;3.92;;;3.53;;
74616;SDS011;63123;50.906;4.198;2023-07-09T14:31:43;4.65;;;4.25;;
74616;SDS011;63123;50.906;4.198;2023-07-09T14:34:23;4.72;;;4.30;;
74616;SDS011;63123;50.906;4.198;2023-07-09T14:36:52;4.38;;;3.97;;
74616;SDS011;63123;50.906;4.198;2023-07-09T14:39:19;4.25;;;3.85;;
74616;SDS011;63123;50.906;4.198;2023-07-09T14:41:45;4.53;;;4.15;;
74616;SDS011;63123;50.906;4.198;2023-07-09T14:44:33;4.05;;;3.72;;
74616;SDS011;63123;50.906;4.198;2023-07-09T14:46:59;4.57;;;4.18;;
74616;SDS011;63123;50.906;4.198;2023-07-09T14:49:26;4.68;;;3.95;;
74616;SDS011;63123;50.906;4.198;2023-07-09T14:51:52;4.55;;;4.15;;
74616;SDS011;63123;50.906;4.198;2023-07-09T14:54:27;4.18;;;3.83;;
74616;SDS011;63123;50.906;4.198;2023-07-09T14:56:54;4.03;;;3.63;;
74616;SDS011;63123;50.906;4.198;2023-07-09T14:59:21;4.88;;;3.92;;
74616;SDS011;63123;50.906;4.198;2023-07-09T15:01:48;4.60;;;4.20;;
74616;SDS011;63123;50.906;4.198;2023-07-09T15:04:25;3.90;;;3.60;;
74616;SDS011;63123;50.906;4.198;2023-07-09T15:06:56;4.53;;;4.13;;
74616;SDS011;63123;50.906;4.198;2023-07-09T15:09:23;4.68;;;4.28;;
74616;SDS011;63123;50.906;4.198;2023-07-09T15:11:51;4.65;;;4.15;;
74616;SDS011;63123;50.906;4.198;2023-07-09T15:14:18;3.90;;;3.60;;
74616;SDS011;63123;50.906;4.198;2023-07-09T15:16:45;4.20;;;3.80;;
74616;SDS011;63123;50.906;4.198;2023-07-09T15:19:12;4.25;;;3.85;;
74616;SDS011;63123;50.906;4.198;2023-07-09T15:21:43;3.97;;;3.65;;
74616;SDS011;63123;50.906;4.198;2023-07-09T15:24:20;4.10;;;3.70;;
74616;SDS011;63123;50.906;4.198;2023-07-09T15:26:50;3.80;;;3.42;;
74616;SDS011;63123;50.906;4.198;2023-07-09T15:29:18;4.13;;;3.72;;
74616;SDS011;63123;50.906;4.198;2023-07-09T15:31:44;4.72;;;3.70;;
74616;SDS011;63123;50.906;4.198;2023-07-09T15:34:10;4.85;;;4.13;;